sensor_id;sensor_type;location;lat;lon;timestamp;pressure;altitude;pressure_sealevel;temperature;humidity
64886;BME280;51514;52.206;5.114;2023-04-25T00:00:15;101165.22;;;8.57;86.46
64886;BME280;51514;52.206;5.114;2023-04-25T00:02:41;101162.84;;;8.54;86.72
64886;BME280;51514;52.206;5.114;2023-04-25T00:05:07;101163.13;;;8.60;87.07
64886;BME280;51514;52.206;5.114;2023-04-25T00:07:33;101160.31;;;8.62;86.26
64886;BME280;51514;52.206;5.114;2023-04-25T00:10:00;101159.31;;;8.63;86.13
64886;BME280;51514;52.206;5.114;2023-04-25T00:12:25;101162.72;;;8.65;86.40
64886;BME280;51514;52.206;5.114;2023-04-25T00:14:53;101152.78;;;8.65;85.95
64886;BME280;51514;52.206;5.114;2023-04-25T00:17:18;101163.41;;;8.67;84.66
64886;BME280;51514;52.206;5.114;2023-04-25T00:19:44;101160.72;;;8.67;85.18
64886;BME280;51514;52.206;5.114;2023-04-25T00:22:11;101171.22;;;8.70;85.41
64886;BME280;51514;52.206;5.114;2023-04-25T00:24:37;101168.53;;;8.70;85.10
64886;BME280;51514;52.206;5.114;2023-04-25T00:27:02;101166.69;;;8.70;84.62
64886;BME280;51514;52.206;5.114;2023-04-25T00:29:28;101168.66;;;8.68;84.71
64886;BME280;51514;52.206;5.114;2023-04-25T00:31:53;101176.00;;;8.66;84.38
64886;BME280;51514;52.206;5.114;2023-04-25T00:34:18;101170.78;;;8.65;84.39
64886;BME280;51514;52.206;5.114;2023-04-25T00:36:44;101177.16;;;8.64;84.16
64886;BME280;51514;52.206;5.114;2023-04-25T00:39:10;101171.06;;;8.62;84.03
64886;BME280;51514;52.206;5.114;2023-04-25T00:41:35;101177.41;;;8.61;84.03
64886;BME280;51514;52.206;5.114;2023-04-25T00:44:02;101176.97;;;8.56;84.12
64886;BME280;51514;52.206;5.114;2023-04-25T00:46:28;101176.28;;;8.54;84.20
64886;BME280;51514;52.206;5.114;2023-04-25T00:48:53;101173.72;;;8.52;84.51
64886;BME280;51514;52.206;5.114;2023-04-25T00:51:20;101180.81;;;8.53;84.69
64886;BME280;51514;52.206;5.114;2023-04-25T00:53:46;101179.94;;;8.53;83.77
64886;BME280;51514;52.206;5.114;2023-04-25T00:56:13;101185.47;;;8.51;83.51
64886;BME280;51514;52.206;5.114;2023-04-25T00:58:40;101183.03;;;8.48;83.79
64886;BME280;51514;52.206;5.114;2023-04-25T01:01:06;101176.22;;;8.44;83.70
64886;BME280;51514;52.206;5.114;2023-04-25T01:03:33;101182.88;;;8.40;83.40
64886;BME280;51514;52.206;5.114;2023-04-25T01:06:01;101184.00;;;8.37;84.03
64886;BME280;51514;52.206;5.114;2023-04-25T01:08:27;101185.09;;;8.35;83.72
64886;BME280;51514;52.206;5.114;2023-04-25T01:10:53;101187.25;;;8.31;84.16
64886;BME280;51514;52.206;5.114;2023-04-25T01:13:18;101192.84;;;8.28;83.58
64886;BME280;51514;52.206;5.114;2023-04-25T01:15:44;101187.47;;;8.28;84.13
64886;BME280;51514;52.206;5.114;2023-04-25T01:18:09;101186.63;;;8.28;83.91
64886;BME280;51514;52.206;5.114;2023-04-25T01:20:37;101186.75;;;8.26;83.53
64886;BME280;51514;52.206;5.114;2023-04-25T01:23:02;101189.84;;;8.22;83.61
64886;BME280;51514;52.206;5.114;2023-04-25T01:25:29;101197.06;;;8.21;83.85
64886;BME280;51514;52.206;5.114;2023-04-25T01:27:55;101195.63;;;8.17;83.43
64886;BME280;51514;52.206;5.114;2023-04-25T01:30:20;101197.59;;;8.15;83.23
64886;BME280;51514;52.206;5.114;2023-04-25T01:32:47;101205.22;;;8.10;83.22
64886;BME280;51514;52.206;5.114;2023-04-25T01:35:13;101198.13;;;8.09;83.76
64886;BME280;51514;52.206;5.114;2023-04-25T01:37:42;101201.81;;;8.08;83.29
64886;BME280;51514;52.206;5.114;2023-04-25T01:40:09;101195.00;;;8.04;83.32
64886;BME280;51514;52.206;5.114;2023-04-25T01:42:37;101202.06;;;8.05;83.36
64886;BME280;51514;52.206;5.114;2023-04-25T01:45:03;101206.84;;;8.01;83.56
64886;BME280;51514;52.206;5.114;2023-04-25T01:47:29;101200.91;;;7.98;83.42
64886;BME280;51514;52.206;5.114;2023-04-25T01:49:55;101202.00;;;7.95;83.20
64886;BME280;51514;52.206;5.114;2023-04-25T01:52:20;101200.19;;;7.96;83.12
64886;BME280;51514;52.206;5.114;2023-04-25T01:54:46;101205.81;;;7.93;83.08
64886;BME280;51514;52.206;5.114;2023-04-25T01:57:11;101211.31;;;7.91;82.90
64886;BME280;51514;52.206;5.114;2023-04-25T01:59:37;101213.31;;;7.89;83.03
64886;BME280;51514;52.206;5.114;2023-04-25T02:02:03;101215.38;;;7.86;83.00
64886;BME280;51514;52.206;5.114;2023-04-25T02:04:31;101217.59;;;7.81;82.77
64886;BME280;51514;52.206;5.114;2023-04-25T02:06:57;101216.19;;;7.77;82.96
64886;BME280;51514;52.206;5.114;2023-04-25T02:09:22;101211.91;;;7.74;83.69
64886;BME280;51514;52.206;5.114;2023-04-25T02:11:48;101226.44;;;7.72;83.32
64886;BME280;51514;52.206;5.114;2023-04-25T02:14:14;101221.34;;;7.68;83.33
64886;BME280;51514;52.206;5.114;2023-04-25T02:16:39;101219.66;;;7.67;83.55
64886;BME280;51514;52.206;5.114;2023-04-25T02:19:05;101218.66;;;7.68;83.73
64886;BME280;51514;52.206;5.114;2023-04-25T02:21:30;101227.72;;;7.67;84.22
64886;BME280;51514;52.206;5.114;2023-04-25T02:23:56;101221.34;;;7.68;83.94
64886;BME280;51514;52.206;5.114;2023-04-25T02:26:21;101224.75;;;7.70;83.77
64886;BME280;51514;52.206;5.114;2023-04-25T02:28:49;101222.78;;;7.73;83.60
64886;BME280;51514;52.206;5.114;2023-04-25T02:31:15;101214.00;;;7.70;84.52
64886;BME280;51514;52.206;5.114;2023-04-25T02:33:40;101223.75;;;7.72;84.74
64886;BME280;51514;52.206;5.114;2023-04-25T02:36:06;101228.03;;;7.74;84.60
64886;BME280;51514;52.206;5.114;2023-04-25T02:38:31;101228.03;;;7.74;84.33
64886;BME280;51514;52.206;5.114;2023-04-25T02:40:57;101225.34;;;7.74;83.65
64886;BME280;51514;52.206;5.114;2023-04-25T02:43:22;101232.41;;;7.75;84.08
64886;BME280;51514;52.206;5.114;2023-04-25T02:45:47;101229.59;;;7.77;84.36
64886;BME280;51514;52.206;5.114;2023-04-25T02:48:13;101228.34;;;7.81;84.14
64886;BME280;51514;52.206;5.114;2023-04-25T02:50:38;101239.81;;;7.83;84.20
64886;BME280;51514;52.206;5.114;2023-04-25T02:53:04;101238.94;;;7.82;84.51
64886;BME280;51514;52.206;5.114;2023-04-25T02:55:29;101238.81;;;7.84;83.73
64886;BME280;51514;52.206;5.114;2023-04-25T02:57:54;101235.88;;;7.87;83.77
64886;BME280;51514;52.206;5.114;2023-04-25T03:00:22;101239.41;;;7.87;83.02
64886;BME280;51514;52.206;5.114;2023-04-25T03:02:48;101239.28;;;7.89;82.83
64886;BME280;51514;52.206;5.114;2023-04-25T03:05:13;101238.44;;;7.88;83.16
64886;BME280;51514;52.206;5.114;2023-04-25T03:07:39;101247.47;;;7.87;82.77
64886;BME280;51514;52.206;5.114;2023-04-25T03:10:06;101244.19;;;7.84;81.92
64886;BME280;51514;52.206;5.114;2023-04-25T03:12:32;101255.31;;;7.79;81.57
64886;BME280;51514;52.206;5.114;2023-04-25T03:14:57;101252.19;;;7.74;83.06
64886;BME280;51514;52.206;5.114;2023-04-25T03:17:22;101250.59;;;7.72;82.88
64886;BME280;51514;52.206;5.114;2023-04-25T03:19:48;101246.34;;;7.69;82.93
64886;BME280;51514;52.206;5.114;2023-04-25T03:22:13;101245.22;;;7.72;83.77
64886;BME280;51514;52.206;5.114;2023-04-25T03:24:38;101241.56;;;7.73;83.83
64886;BME280;51514;52.206;5.114;2023-04-25T03:27:04;101247.06;;;7.71;82.89
64886;BME280;51514;52.206;5.114;2023-04-25T03:29:29;101250.34;;;7.75;82.57
64886;BME280;51514;52.206;5.114;2023-04-25T03:31:55;101255.47;;;7.78;82.30
64886;BME280;51514;52.206;5.114;2023-04-25T03:34:20;101253.47;;;7.80;82.68
64886;BME280;51514;52.206;5.114;2023-04-25T03:36:46;101249.81;;;7.81;82.41
64886;BME280;51514;52.206;5.114;2023-04-25T03:39:12;101261.28;;;7.83;82.30
64886;BME280;51514;52.206;5.114;2023-04-25T03:41:37;101259.44;;;7.83;82.65
64886;BME280;51514;52.206;5.114;2023-04-25T03:44:03;101263.84;;;7.84;81.89
64886;BME280;51514;52.206;5.114;2023-04-25T03:46:28;101262.97;;;7.84;81.33
64886;BME280;51514;52.206;5.114;2023-04-25T03:48:53;101254.22;;;7.82;81.18
64886;BME280;51514;52.206;5.114;2023-04-25T03:51:19;101262.38;;;7.80;81.86
64886;BME280;51514;52.206;5.114;2023-04-25T03:53:44;101262.06;;;7.74;79.84
64886;BME280;51514;52.206;5.114;2023-04-25T03:56:09;101265.78;;;7.61;78.52
64886;BME280;51514;52.206;5.114;2023-04-25T03:58:35;101271.69;;;7.55;78.54
64886;BME280;51514;52.206;5.114;2023-04-25T04:01:00;101275.47;;;7.53;77.82
64886;BME280;51514;52.206;5.114;2023-04-25T04:03:28;101281.56;;;7.55;78.51
64886;BME280;51514;52.206;5.114;2023-04-25T04:05:53;101286.94;;;7.55;78.05
64886;BME280;51514;52.206;5.114;2023-04-25T04:08:18;101286.81;;;7.56;78.03
64886;BME280;51514;52.206;5.114;2023-04-25T04:10:44;101279.00;;;7.53;78.41
64886;BME280;51514;52.206;5.114;2023-04-25T04:13:09;101280.59;;;7.56;79.36
64886;BME280;51514;52.206;5.114;2023-04-25T04:15:35;101278.88;;;7.55;79.29
64886;BME280;51514;52.206;5.114;2023-04-25T04:18:00;101289.63;;;7.55;79.37
64886;BME280;51514;52.206;5.114;2023-04-25T04:20:28;101291.44;;;7.54;80.12
64886;BME280;51514;52.206;5.114;2023-04-25T04:22:55;101294.00;;;7.56;79.80
64886;BME280;51514;52.206;5.114;2023-04-25T04:25:20;101303.47;;;7.60;80.19
64886;BME280;51514;52.206;5.114;2023-04-25T04:27:45;101307.75;;;7.62;80.43
64886;BME280;51514;52.206;5.114;2023-04-25T04:30:11;101304.09;;;7.63;80.07
64886;BME280;51514;52.206;5.114;2023-04-25T04:32:37;101299.44;;;7.65;81.06
64886;BME280;51514;52.206;5.114;2023-04-25T04:35:02;101303.84;;;7.66;81.80
64886;BME280;51514;52.206;5.114;2023-04-25T04:37:29;101316.53;;;7.64;82.45
64886;BME280;51514;52.206;5.114;2023-04-25T04:39:55;101313.72;;;7.66;81.69
64886;BME280;51514;52.206;5.114;2023-04-25T04:42:20;101312.59;;;7.68;82.25
64886;BME280;51514;52.206;5.114;2023-04-25T04:44:46;101319.53;;;7.71;81.55
64886;BME280;51514;52.206;5.114;2023-04-25T04:47:11;101328.56;;;7.70;81.59
64886;BME280;51514;52.206;5.114;2023-04-25T04:49:37;101330.41;;;7.69;80.18
64886;BME280;51514;52.206;5.114;2023-04-25T04:52:03;101332.09;;;7.70;80.08
64886;BME280;51514;52.206;5.114;2023-04-25T04:54:28;101327.72;;;7.69;80.76
64886;BME280;51514;52.206;5.114;2023-04-25T04:56:54;101336.03;;;7.66;80.02
64886;BME280;51514;52.206;5.114;2023-04-25T04:59:19;101332.88;;;7.61;80.16
64886;BME280;51514;52.206;5.114;2023-04-25T05:01:45;101333.84;;;7.60;79.73
64886;BME280;51514;52.206;5.114;2023-04-25T05:04:11;101343.59;;;7.61;79.84
64886;BME280;51514;52.206;5.114;2023-04-25T05:06:37;101334.59;;;7.62;79.49
64886;BME280;51514;52.206;5.114;2023-04-25T05:09:02;101340.69;;;7.64;80.01
64886;BME280;51514;52.206;5.114;2023-04-25T05:11:28;101332.38;;;7.67;79.12
64886;BME280;51514;52.206;5.114;2023-04-25T05:13:54;101343.56;;;7.73;79.12
64886;BME280;51514;52.206;5.114;2023-04-25T05:16:20;101353.31;;;7.74;78.70
64886;BME280;51514;52.206;5.114;2023-04-25T05:18:46;101345.75;;;7.79;79.93
64886;BME280;51514;52.206;5.114;2023-04-25T05:21:12;101349.00;;;7.82;79.84
64886;BME280;51514;52.206;5.114;2023-04-25T05:23:37;101346.06;;;7.85;79.32
64886;BME280;51514;52.206;5.114;2023-04-25T05:26:03;101349.50;;;7.87;79.46
64886;BME280;51514;52.206;5.114;2023-04-25T05:28:28;101354.75;;;7.89;78.93
64886;BME280;51514;52.206;5.114;2023-04-25T05:30:53;101353.59;;;7.91;79.33
64886;BME280;51514;52.206;5.114;2023-04-25T05:33:19;101368.50;;;7.95;79.49
64886;BME280;51514;52.206;5.114;2023-04-25T05:35:44;101356.66;;;7.98;79.10
64886;BME280;51514;52.206;5.114;2023-04-25T05:38:10;101363.44;;;8.02;79.57
64886;BME280;51514;52.206;5.114;2023-04-25T05:40:35;101363.91;;;8.07;79.25
64886;BME280;51514;52.206;5.114;2023-04-25T05:43:01;101368.06;;;8.11;79.93
64886;BME280;51514;52.206;5.114;2023-04-25T05:45:26;101367.78;;;8.14;79.84
64886;BME280;51514;52.206;5.114;2023-04-25T05:47:51;101377.53;;;8.15;78.59
64886;BME280;51514;52.206;5.114;2023-04-25T05:50:17;101375.31;;;8.20;79.00
64886;BME280;51514;52.206;5.114;2023-04-25T05:52:42;101382.13;;;8.24;78.59
64886;BME280;51514;52.206;5.114;2023-04-25T05:55:08;101385.28;;;8.29;79.59
64886;BME280;51514;52.206;5.114;2023-04-25T05:57:33;101391.13;;;8.34;79.55
64886;BME280;51514;52.206;5.114;2023-04-25T05:59:59;101385.25;;;8.40;79.06
64886;BME280;51514;52.206;5.114;2023-04-25T06:02:24;101394.34;;;8.49;78.63
64886;BME280;51514;52.206;5.114;2023-04-25T06:04:50;101392.69;;;8.58;78.78
64886;BME280;51514;52.206;5.114;2023-04-25T06:07:16;101388.06;;;8.60;78.74
64886;BME280;51514;52.206;5.114;2023-04-25T06:09:43;101397.56;;;8.64;77.62
64886;BME280;51514;52.206;5.114;2023-04-25T06:12:08;101411.38;;;8.59;76.10
64886;BME280;51514;52.206;5.114;2023-04-25T06:14:33;101407.13;;;8.57;76.12
64886;BME280;51514;52.206;5.114;2023-04-25T06:16:59;101417.38;;;8.63;75.77
64886;BME280;51514;52.206;5.114;2023-04-25T06:19:25;101417.94;;;8.66;75.48
64886;BME280;51514;52.206;5.114;2023-04-25T06:21:50;101405.81;;;8.72;75.75
64886;BME280;51514;52.206;5.114;2023-04-25T06:24:15;101415.50;;;8.84;75.96
64886;BME280;51514;52.206;5.114;2023-04-25T06:26:41;101413.84;;;8.93;75.20
64886;BME280;51514;52.206;5.114;2023-04-25T06:29:06;101413.16;;;9.00;74.62
64886;BME280;51514;52.206;5.114;2023-04-25T06:31:31;101416.88;;;9.09;74.48
64886;BME280;51514;52.206;5.114;2023-04-25T06:33:58;101410.84;;;9.17;75.03
64886;BME280;51514;52.206;5.114;2023-04-25T06:36:23;101422.22;;;9.30;75.59
64886;BME280;51514;52.206;5.114;2023-04-25T06:38:53;101419.69;;;9.38;74.38
64886;BME280;51514;52.206;5.114;2023-04-25T06:41:18;101421.16;;;9.51;73.96
64886;BME280;51514;52.206;5.114;2023-04-25T06:43:44;101431.09;;;9.61;73.27
64886;BME280;51514;52.206;5.114;2023-04-25T06:46:09;101432.81;;;9.71;73.89
64886;BME280;51514;52.206;5.114;2023-04-25T06:48:35;101435.94;;;9.86;72.61
64886;BME280;51514;52.206;5.114;2023-04-25T06:51:00;101437.63;;;9.87;72.81
64886;BME280;51514;52.206;5.114;2023-04-25T06:53:25;101438.63;;;9.96;71.47
64886;BME280;51514;52.206;5.114;2023-04-25T06:55:51;101431.00;;;10.01;72.54
64886;BME280;51514;52.206;5.114;2023-04-25T06:58:17;101440.50;;;10.05;72.70
64886;BME280;51514;52.206;5.114;2023-04-25T07:00:42;101439.66;;;10.14;72.76
64886;BME280;51514;52.206;5.114;2023-04-25T07:03:07;101447.31;;;10.09;71.65
64886;BME280;51514;52.206;5.114;2023-04-25T07:05:33;101443.63;;;10.10;70.46
64886;BME280;51514;52.206;5.114;2023-04-25T07:07:58;101447.31;;;10.09;69.86
64886;BME280;51514;52.206;5.114;2023-04-25T07:10:24;101442.34;;;10.04;69.05
64886;BME280;51514;52.206;5.114;2023-04-25T07:12:50;101451.69;;;10.00;67.83
64886;BME280;51514;52.206;5.114;2023-04-25T07:15:15;101449.13;;;9.99;67.94
64886;BME280;51514;52.206;5.114;2023-04-25T07:17:41;101454.97;;;9.94;67.05
64886;BME280;51514;52.206;5.114;2023-04-25T07:20:06;101464.03;;;9.93;67.32
64886;BME280;51514;52.206;5.114;2023-04-25T07:22:32;101457.47;;;9.86;66.40
64886;BME280;51514;52.206;5.114;2023-04-25T07:24:58;101469.09;;;9.77;64.68
64886;BME280;51514;52.206;5.114;2023-04-25T07:27:23;101465.28;;;9.79;66.81
64886;BME280;51514;52.206;5.114;2023-04-25T07:29:48;101469.81;;;9.79;65.15
64886;BME280;51514;52.206;5.114;2023-04-25T07:32:14;101481.44;;;9.79;66.10
64886;BME280;51514;52.206;5.114;2023-04-25T07:34:39;101474.22;;;9.80;64.26
64886;BME280;51514;52.206;5.114;2023-04-25T07:37:05;101468.97;;;9.88;65.10
64886;BME280;51514;52.206;5.114;2023-04-25T07:39:31;101470.69;;;9.89;63.61
64886;BME280;51514;52.206;5.114;2023-04-25T07:41:56;101473.38;;;9.99;64.59
64886;BME280;51514;52.206;5.114;2023-04-25T07:44:23;101477.25;;;10.06;65.48
64886;BME280;51514;52.206;5.114;2023-04-25T07:46:49;101480.22;;;10.12;64.98
64886;BME280;51514;52.206;5.114;2023-04-25T07:49:14;101490.63;;;10.27;64.13
64886;BME280;51514;52.206;5.114;2023-04-25T07:51:40;101479.84;;;10.46;63.51
64886;BME280;51514;52.206;5.114;2023-04-25T07:54:06;101478.56;;;10.59;64.07
64886;BME280;51514;52.206;5.114;2023-04-25T07:56:32;101480.06;;;10.72;61.91
64886;BME280;51514;52.206;5.114;2023-04-25T07:58:57;101485.50;;;10.81;62.09
64886;BME280;51514;52.206;5.114;2023-04-25T08:01:23;101498.69;;;10.75;60.70
64886;BME280;51514;52.206;5.114;2023-04-25T08:03:48;101502.41;;;10.54;61.00
64886;BME280;51514;52.206;5.114;2023-04-25T08:06:13;101507.66;;;10.27;62.16
64886;BME280;51514;52.206;5.114;2023-04-25T08:08:39;101516.75;;;9.96;63.38
64886;BME280;51514;52.206;5.114;2023-04-25T08:11:04;101528.59;;;9.34;64.67
64886;BME280;51514;52.206;5.114;2023-04-25T08:13:30;101530.59;;;8.90;68.08
64886;BME280;51514;52.206;5.114;2023-04-25T08:15:55;101530.78;;;8.77;70.16
64886;BME280;51514;52.206;5.114;2023-04-25T08:18:21;101536.56;;;8.73;70.32
64886;BME280;51514;52.206;5.114;2023-04-25T08:20:46;101538.28;;;8.74;71.41
64886;BME280;51514;52.206;5.114;2023-04-25T08:23:12;101541.53;;;8.77;69.87
64886;BME280;51514;52.206;5.114;2023-04-25T08:25:38;101532.44;;;8.90;71.53
64886;BME280;51514;52.206;5.114;2023-04-25T08:28:05;101533.75;;;9.16;72.68
64886;BME280;51514;52.206;5.114;2023-04-25T08:30:31;101535.03;;;9.52;73.50
64886;BME280;51514;52.206;5.114;2023-04-25T08:32:56;101538.16;;;9.87;72.66
64886;BME280;51514;52.206;5.114;2023-04-25T08:35:22;101539.03;;;9.98;70.68
64886;BME280;51514;52.206;5.114;2023-04-25T08:37:48;101548.44;;;10.13;68.88
64886;BME280;51514;52.206;5.114;2023-04-25T08:40:15;101557.00;;;10.28;66.32
64886;BME280;51514;52.206;5.114;2023-04-25T08:42:41;101552.91;;;10.33;64.10
64886;BME280;51514;52.206;5.114;2023-04-25T08:45:08;101556.19;;;10.37;62.68
64886;BME280;51514;52.206;5.114;2023-04-25T08:47:35;101555.88;;;10.40;61.46
64886;BME280;51514;52.206;5.114;2023-04-25T08:50:03;101565.72;;;10.70;64.27
64886;BME280;51514;52.206;5.114;2023-04-25T08:52:37;101568.53;;;10.87;61.54
64886;BME280;51514;52.206;5.114;2023-04-25T08:55:04;101565.94;;;11.15;63.58
64886;BME280;51514;52.206;5.114;2023-04-25T08:57:32;101571.56;;;11.41;63.13
64886;BME280;51514;52.206;5.114;2023-04-25T08:59:59;101573.66;;;11.56;60.62
64886;BME280;51514;52.206;5.114;2023-04-25T09:02:26;101576.00;;;11.69;60.16
64886;BME280;51514;52.206;5.114;2023-04-25T09:04:51;101576.84;;;11.89;60.04
64886;BME280;51514;52.206;5.114;2023-04-25T09:07:19;101584.97;;;12.06;60.03
64886;BME280;51514;52.206;5.114;2023-04-25T09:09:46;101584.94;;;12.16;60.30
64886;BME280;51514;52.206;5.114;2023-04-25T09:12:12;101588.78;;;12.14;58.99
64886;BME280;51514;52.206;5.114;2023-04-25T09:14:38;101603.50;;;12.01;57.06
64886;BME280;51514;52.206;5.114;2023-04-25T09:17:04;101601.59;;;11.75;56.63
64886;BME280;51514;52.206;5.114;2023-04-25T09:19:33;101596.78;;;11.59;56.04
64886;BME280;51514;52.206;5.114;2023-04-25T09:22:01;101597.69;;;11.50;55.63
64886;BME280;51514;52.206;5.114;2023-04-25T09:24:42;101612.81;;;11.23;57.36
64886;BME280;51514;52.206;5.114;2023-04-25T09:27:10;101619.91;;;11.05;58.66
64886;BME280;51514;52.206;5.114;2023-04-25T09:29:38;101624.47;;;10.95;59.50
64886;BME280;51514;52.206;5.114;2023-04-25T09:32:20;101634.00;;;10.80;58.50
64886;BME280;51514;52.206;5.114;2023-04-25T09:34:49;101640.91;;;10.73;60.12
64886;BME280;51514;52.206;5.114;2023-04-25T09:37:20;101636.38;;;10.64;62.25
64886;BME280;51514;52.206;5.114;2023-04-25T09:39:51;101632.41;;;10.68;62.56
64886;BME280;51514;52.206;5.114;2023-04-25T09:42:16;101636.09;;;10.76;63.62
64886;BME280;51514;52.206;5.114;2023-04-25T09:44:44;101634.84;;;10.90;64.54
64886;BME280;51514;52.206;5.114;2023-04-25T09:47:11;101631.44;;;10.97;64.50
64886;BME280;51514;52.206;5.114;2023-04-25T09:49:39;101639.81;;;10.94;64.03
64886;BME280;51514;52.206;5.114;2023-04-25T09:52:05;101637.97;;;10.95;61.29
64886;BME280;51514;52.206;5.114;2023-04-25T09:54:31;101649.19;;;10.81;59.25
64886;BME280;51514;52.206;5.114;2023-04-25T09:56:56;101649.31;;;10.79;60.56
64886;BME280;51514;52.206;5.114;2023-04-25T09:59:26;101650.59;;;10.85;59.19
64886;BME280;51514;52.206;5.114;2023-04-25T10:01:54;101654.00;;;10.87;57.86
64886;BME280;51514;52.206;5.114;2023-04-25T10:04:24;101653.88;;;10.98;58.66
64886;BME280;51514;52.206;5.114;2023-04-25T10:06:52;101646.75;;;11.07;57.28
64886;BME280;51514;52.206;5.114;2023-04-25T10:09:20;101656.44;;;11.09;55.64
64886;BME280;51514;52.206;5.114;2023-04-25T10:11:46;101656.00;;;11.23;55.73
64886;BME280;51514;52.206;5.114;2023-04-25T10:14:16;101650.47;;;11.34;56.02
64886;BME280;51514;52.206;5.114;2023-04-25T10:16:41;101650.56;;;11.52;55.64
64886;BME280;51514;52.206;5.114;2023-04-25T10:19:08;101649.50;;;11.82;66.30
64886;BME280;51514;52.206;5.114;2023-04-25T10:21:40;101654.53;;;12.41;67.27
64886;BME280;51514;52.206;5.114;2023-04-25T10:24:05;101656.34;;;12.68;56.21
64886;BME280;51514;52.206;5.114;2023-04-25T10:26:31;101657.81;;;12.80;56.79
64886;BME280;51514;52.206;5.114;2023-04-25T10:29:02;101663.16;;;12.72;51.17
64886;BME280;51514;52.206;5.114;2023-04-25T10:31:29;101655.81;;;12.65;50.85
64886;BME280;51514;52.206;5.114;2023-04-25T10:33:55;101645.94;;;12.73;50.27
64886;BME280;51514;52.206;5.114;2023-04-25T10:36:23;101659.88;;;12.96;50.42
64886;BME280;51514;52.206;5.114;2023-04-25T10:38:49;101658.59;;;12.91;50.10
64886;BME280;51514;52.206;5.114;2023-04-25T10:41:19;101667.03;;;12.88;49.74
64886;BME280;51514;52.206;5.114;2023-04-25T10:43:49;101668.69;;;12.53;50.23
64886;BME280;51514;52.206;5.114;2023-04-25T10:46:26;101676.03;;;12.06;52.55
64886;BME280;51514;52.206;5.114;2023-04-25T10:48:57;101686.47;;;11.72;54.65
64886;BME280;51514;52.206;5.114;2023-04-25T10:51:25;101688.09;;;11.46;55.22
64886;BME280;51514;52.206;5.114;2023-04-25T10:56:22;101697.50;;;11.03;58.79
64886;BME280;51514;52.206;5.114;2023-04-25T10:58:48;101698.31;;;11.04;58.57
64886;BME280;51514;52.206;5.114;2023-04-25T11:01:14;101707.41;;;10.93;58.08
64886;BME280;51514;52.206;5.114;2023-04-25T11:03:41;101709.06;;;10.75;58.30
64886;BME280;51514;52.206;5.114;2023-04-25T11:06:23;101708.22;;;10.74;60.15
64886;BME280;51514;52.206;5.114;2023-04-25T11:08:52;101697.03;;;10.88;58.14
64886;BME280;51514;52.206;5.114;2023-04-25T11:11:18;101692.91;;;11.04;56.89
64886;BME280;51514;52.206;5.114;2023-04-25T11:13:44;101699.47;;;11.20;56.99
64886;BME280;51514;52.206;5.114;2023-04-25T11:16:10;101691.81;;;11.35;55.16
64886;BME280;51514;52.206;5.114;2023-04-25T11:18:35;101683.84;;;11.43;53.54
64886;BME280;51514;52.206;5.114;2023-04-25T11:21:02;101680.97;;;11.64;53.04
64886;BME280;51514;52.206;5.114;2023-04-25T11:23:29;101693.72;;;11.91;53.00
64886;BME280;51514;52.206;5.114;2023-04-25T11:25:55;101692.22;;;12.16;54.18
64886;BME280;51514;52.206;5.114;2023-04-25T11:28:21;101688.50;;;12.44;53.37
64886;BME280;51514;52.206;5.114;2023-04-25T11:30:50;101709.25;;;12.26;52.75
64886;BME280;51514;52.206;5.114;2023-04-25T11:33:16;101719.59;;;11.93;54.74
64886;BME280;51514;52.206;5.114;2023-04-25T11:35:41;101723.75;;;11.59;56.15
64886;BME280;51514;52.206;5.114;2023-04-25T11:38:06;101724.19;;;11.16;59.11
64886;BME280;51514;52.206;5.114;2023-04-25T11:40:32;101732.38;;;10.85;60.49
64886;BME280;51514;52.206;5.114;2023-04-25T11:43:00;101738.13;;;10.61;62.97
64886;BME280;51514;52.206;5.114;2023-04-25T11:45:26;101749.22;;;10.28;63.96
64886;BME280;51514;52.206;5.114;2023-04-25T11:47:52;101757.53;;;9.95;63.94
64886;BME280;51514;52.206;5.114;2023-04-25T11:50:17;101735.78;;;9.86;66.15
64886;BME280;51514;52.206;5.114;2023-04-25T11:52:46;101737.59;;;9.86;66.74
64886;BME280;51514;52.206;5.114;2023-04-25T11:55:16;101729.88;;;9.93;67.66
64886;BME280;51514;52.206;5.114;2023-04-25T11:57:43;101733.97;;;9.97;66.80
64886;BME280;51514;52.206;5.114;2023-04-25T12:00:11;101737.16;;;10.02;66.19
64886;BME280;51514;52.206;5.114;2023-04-25T12:02:40;101733.06;;;10.07;66.99
64886;BME280;51514;52.206;5.114;2023-04-25T12:05:07;101734.50;;;10.11;66.84
64886;BME280;51514;52.206;5.114;2023-04-25T12:07:33;101732.59;;;10.23;66.48
64886;BME280;51514;52.206;5.114;2023-04-25T12:09:59;101728.38;;;10.30;66.24
64886;BME280;51514;52.206;5.114;2023-04-25T12:12:28;101737.69;;;10.47;66.39
64886;BME280;51514;52.206;5.114;2023-04-25T12:15:23;101737.00;;;10.54;65.69
64886;BME280;51514;52.206;5.114;2023-04-25T12:17:50;101730.50;;;10.67;66.01
64886;BME280;51514;52.206;5.114;2023-04-25T12:20:24;101732.66;;;10.82;60.15
64886;BME280;51514;52.206;5.114;2023-04-25T12:22:50;101728.56;;;10.97;60.68
64886;BME280;51514;52.206;5.114;2023-04-25T12:31:04;101728.72;;;11.63;57.65
64886;BME280;51514;52.206;5.114;2023-04-25T12:33:37;101734.41;;;11.70;54.83
64886;BME280;51514;52.206;5.114;2023-04-25T12:36:05;101736.97;;;11.71;54.54
64886;BME280;51514;52.206;5.114;2023-04-25T12:38:41;101733.72;;;11.68;54.32
64886;BME280;51514;52.206;5.114;2023-04-25T12:41:07;101740.13;;;11.67;54.86
64886;BME280;51514;52.206;5.114;2023-04-25T12:43:33;101736.41;;;11.68;53.88
64886;BME280;51514;52.206;5.114;2023-04-25T12:45:58;101734.41;;;11.70;54.00
64886;BME280;51514;52.206;5.114;2023-04-25T12:48:24;101738.53;;;11.93;53.93
64886;BME280;51514;52.206;5.114;2023-04-25T12:50:50;101735.44;;;12.25;55.28
64886;BME280;51514;52.206;5.114;2023-04-25T12:53:16;101723.94;;;12.51;53.09
64886;BME280;51514;52.206;5.114;2023-04-25T12:55:42;101734.09;;;12.66;49.72
64886;BME280;51514;52.206;5.114;2023-04-25T12:58:07;101735.03;;;12.85;49.12
64886;BME280;51514;52.206;5.114;2023-04-25T13:00:32;101741.00;;;13.06;48.44